createdAt,value
2017-10-15T00:01:34.709Z,9.47
2017-10-15T00:04:02.165Z,10.30
2017-10-15T00:06:29.647Z,9.60
2017-10-15T00:08:57.094Z,8.30
2017-10-15T00:11:24.536Z,8.90
2017-10-15T00:13:51.976Z,9.27
2017-10-15T00:16:19.417Z,8.88
2017-10-15T00:18:46.870Z,8.90
2017-10-15T00:21:14.316Z,10.30
2017-10-15T00:23:41.768Z,7.90
2017-10-15T00:26:09.210Z,9.32
2017-10-15T00:28:37.464Z,9.73
2017-10-15T00:31:04.906Z,9.53
2017-10-15T00:33:32.351Z,9.73
2017-10-15T00:35:59.796Z,8.83
2017-10-15T00:38:27.232Z,10.70
2017-10-15T00:40:54.685Z,10.82
2017-10-15T00:43:22.133Z,10.77
2017-10-15T00:45:49.589Z,10.90
2017-10-15T00:48:17.042Z,10.43
2017-10-15T00:50:45.253Z,9.53
2017-10-15T00:53:12.717Z,10.65
2017-10-15T00:55:40.161Z,11.10
2017-10-15T00:58:07.608Z,9.38
2017-10-15T01:00:35.052Z,10.43
2017-10-15T01:03:02.492Z,10.82
2017-10-15T01:05:29.955Z,9.63
2017-10-15T01:07:57.392Z,10.53
2017-10-15T01:10:25.612Z,10.05
2017-10-15T01:12:53.054Z,9.93
2017-10-15T01:15:20.497Z,10.88
2017-10-15T01:17:47.946Z,10.50
2017-10-15T01:20:15.403Z,10.20
2017-10-15T01:22:42.845Z,11.32
2017-10-15T01:25:10.308Z,11.30
2017-10-15T01:27:37.758Z,10.95
2017-10-15T01:30:05.981Z,10.55
2017-10-15T01:32:33.424Z,11.68
2017-10-15T01:35:00.867Z,11.75
2017-10-15T01:37:28.336Z,11.23
2017-10-15T01:39:55.781Z,11.07
2017-10-15T01:42:23.254Z,10.68
2017-10-15T01:44:51.481Z,11.93
2017-10-15T01:47:18.935Z,10.73
2017-10-15T01:49:46.446Z,10.95
2017-10-15T01:52:13.889Z,11.30
2017-10-15T01:54:41.357Z,11.85
2017-10-15T01:57:08.804Z,9.68
2017-10-15T01:59:36.248Z,11.63
2017-10-15T02:02:03.700Z,11.40
2017-10-15T02:04:31.910Z,10.35
2017-10-15T02:06:59.372Z,12.07
2017-10-15T02:09:26.805Z,11.95
2017-10-15T02:11:54.256Z,10.85
2017-10-15T02:14:21.702Z,11.43
2017-10-15T02:16:49.152Z,12.15
2017-10-15T02:19:16.601Z,10.40
2017-10-15T02:21:44.055Z,10.55
2017-10-15T02:24:12.274Z,10.60
2017-10-15T02:26:39.729Z,10.80
2017-10-15T02:29:07.168Z,12.35
2017-10-15T02:31:34.637Z,11.00
2017-10-15T02:34:02.080Z,11.82
2017-10-15T02:36:29.541Z,9.80
2017-10-15T02:38:56.986Z,10.13
2017-10-15T02:41:24.441Z,10.38
2017-10-15T02:43:51.893Z,10.95
2017-10-15T02:46:19.352Z,10.80
2017-10-15T02:48:46.801Z,10.85
2017-10-15T02:51:14.252Z,11.25
2017-10-15T02:53:41.705Z,10.75
2017-10-15T02:56:09.162Z,10.53
2017-10-15T02:58:37.372Z,11.27
2017-10-15T03:01:04.829Z,9.48
2017-10-15T03:03:32.287Z,9.73
2017-10-15T03:05:59.756Z,9.20
2017-10-15T03:08:27.964Z,10.50
2017-10-15T03:10:55.402Z,8.82
2017-10-15T03:13:22.844Z,8.80
2017-10-15T03:15:50.281Z,9.07
2017-10-15T03:18:17.749Z,8.68
2017-10-15T03:20:45.201Z,9.57
2017-10-15T03:23:12.635Z,8.85
2017-10-15T03:25:40.848Z,9.10
2017-10-15T03:28:08.290Z,9.55
2017-10-15T03:30:35.746Z,9.52
2017-10-15T03:33:03.197Z,8.20
2017-10-15T03:35:31.456Z,9.38
2017-10-15T03:37:58.910Z,10.65
2017-10-15T03:40:26.403Z,9.27
2017-10-15T03:42:53.830Z,9.95
2017-10-15T03:45:21.277Z,8.73
2017-10-15T03:47:48.723Z,9.73
2017-10-15T03:50:16.158Z,8.77
2017-10-15T03:52:43.588Z,8.30
2017-10-15T03:55:11.028Z,8.70
2017-10-15T03:57:38.468Z,10.05
2017-10-15T04:00:05.912Z,8.98
2017-10-15T04:02:33.344Z,8.65
2017-10-15T04:05:00.898Z,8.27
2017-10-15T04:07:28.326Z,8.95
2017-10-15T04:09:55.768Z,8.93
2017-10-15T04:12:23.195Z,8.75
2017-10-15T04:14:50.647Z,8.00
2017-10-15T04:17:18.083Z,8.98
2017-10-15T04:19:45.540Z,9.30
2017-10-15T04:22:12.972Z,8.40
2017-10-15T04:24:40.409Z,8.27
2017-10-15T04:27:07.837Z,8.70
2017-10-15T04:29:36.041Z,8.50
2017-10-15T04:32:03.476Z,8.90
2017-10-15T04:34:30.939Z,9.13
2017-10-15T04:36:58.381Z,8.30
2017-10-15T04:39:25.828Z,8.40
2017-10-15T04:41:53.264Z,8.18
2017-10-15T04:44:20.706Z,7.35
2017-10-15T04:46:48.139Z,7.12
2017-10-15T04:49:15.572Z,8.27
2017-10-15T04:51:43.020Z,8.77
2017-10-15T04:54:10.467Z,8.55
2017-10-15T04:56:37.905Z,7.60
2017-10-15T04:59:05.331Z,8.55
2017-10-15T05:01:33.554Z,8.55
2017-10-15T05:04:00.987Z,8.30
2017-10-15T05:06:28.415Z,8.48
2017-10-15T05:08:55.873Z,8.30
2017-10-15T05:11:23.313Z,8.15
2017-10-15T05:13:50.761Z,8.30
2017-10-15T05:16:18.229Z,8.57
2017-10-15T05:18:45.665Z,8.45
2017-10-15T05:21:13.106Z,8.43
2017-10-15T05:23:40.576Z,8.80
2017-10-15T05:26:08.029Z,7.70
2017-10-15T05:28:35.753Z,9.13
2017-10-15T05:31:03.180Z,9.38
2017-10-15T05:33:30.632Z,8.27
2017-10-15T05:35:58.066Z,6.80
2017-10-15T05:38:25.523Z,7.57
2017-10-15T05:40:52.989Z,8.60
2017-10-15T05:43:20.425Z,8.45
2017-10-15T05:45:47.851Z,8.68
2017-10-15T05:48:15.284Z,6.93
2017-10-15T05:50:42.719Z,8.20
2017-10-15T05:53:10.160Z,9.55
2017-10-15T05:55:37.606Z,8.38
2017-10-15T05:58:05.036Z,7.87
2017-10-15T06:00:32.472Z,8.75
2017-10-15T06:02:59.909Z,8.10
2017-10-15T06:05:28.109Z,8.40
2017-10-15T06:07:55.552Z,7.95
2017-10-15T06:10:22.988Z,8.70
2017-10-15T06:12:50.419Z,8.00
2017-10-15T06:15:17.870Z,7.55
2017-10-15T06:17:45.330Z,8.45
2017-10-15T06:20:12.783Z,8.23
2017-10-15T06:22:40.208Z,7.82
2017-10-15T06:25:07.652Z,8.93
2017-10-15T06:27:35.076Z,8.38
2017-10-15T06:30:02.529Z,7.62
2017-10-15T06:32:29.969Z,8.60
2017-10-15T06:34:57.412Z,9.10
2017-10-15T06:37:24.844Z,9.18
2017-10-15T06:39:53.192Z,9.90
2017-10-15T06:42:20.624Z,8.57
2017-10-15T06:44:48.078Z,8.77
2017-10-15T06:47:15.516Z,8.43
2017-10-15T06:49:42.963Z,8.40
2017-10-15T06:52:10.405Z,8.30
2017-10-15T06:54:37.850Z,7.97
2017-10-15T06:57:05.292Z,10.40
2017-10-15T06:59:32.747Z,8.00
2017-10-15T07:02:00.192Z,8.98
2017-10-15T07:04:27.644Z,6.43
2017-10-15T07:06:55.840Z,7.67
2017-10-15T07:09:23.298Z,7.00
2017-10-15T07:11:50.726Z,6.57
2017-10-15T07:14:18.181Z,6.30
2017-10-15T07:16:45.626Z,6.77
2017-10-15T07:19:13.084Z,7.20
2017-10-15T07:21:40.521Z,7.07
2017-10-15T07:24:07.952Z,6.27
2017-10-15T07:26:35.409Z,7.27
2017-10-15T07:29:02.848Z,6.03
2017-10-15T07:31:30.287Z,5.93
2017-10-15T07:33:57.724Z,6.37
2017-10-15T07:36:25.160Z,6.60
2017-10-15T07:38:52.592Z,6.87
2017-10-15T07:41:20.808Z,5.70
2017-10-15T07:43:49.021Z,7.37
2017-10-15T07:46:16.484Z,7.67
2017-10-15T07:48:43.926Z,8.00
2017-10-15T07:51:11.361Z,6.93
2017-10-15T07:53:38.807Z,7.47
2017-10-15T07:56:06.236Z,6.83
2017-10-15T07:58:33.693Z,7.87
2017-10-15T08:01:01.137Z,7.70
2017-10-15T08:03:28.569Z,7.37
2017-10-15T08:05:56.011Z,8.03
2017-10-15T08:08:23.451Z,9.50
2017-10-15T08:10:50.934Z,11.80
2017-10-15T08:13:18.396Z,12.50
2017-10-15T08:15:45.853Z,13.73
2017-10-15T08:18:14.077Z,13.37
2017-10-15T08:20:41.509Z,13.40
2017-10-15T08:23:08.966Z,13.83
2017-10-15T08:25:36.420Z,10.70
2017-10-15T08:28:03.866Z,20.50
2017-10-15T08:30:31.321Z,16.77
2017-10-15T08:32:58.776Z,14.63
2017-10-15T08:35:26.976Z,14.03
2017-10-15T08:37:54.432Z,16.03
2017-10-15T08:40:21.872Z,14.97
2017-10-15T08:42:49.314Z,14.43
2017-10-15T08:45:16.756Z,16.33
2017-10-15T08:47:44.212Z,14.33
2017-10-15T08:50:11.689Z,15.90
2017-10-15T08:52:39.888Z,14.53
2017-10-15T08:55:07.344Z,16.50
2017-10-15T08:57:34.824Z,16.10
2017-10-15T09:00:03.034Z,17.53
2017-10-15T09:02:30.511Z,16.17
2017-10-15T09:04:57.956Z,14.63
2017-10-15T09:07:25.424Z,12.87
2017-10-15T09:09:52.904Z,12.70
2017-10-15T09:12:20.352Z,12.70
2017-10-15T09:14:47.792Z,13.37
2017-10-15T09:17:15.233Z,12.83
2017-10-15T09:19:42.717Z,12.03
2017-10-15T09:22:10.180Z,12.93
2017-10-15T09:24:37.662Z,11.30
2017-10-15T09:27:05.095Z,11.30
2017-10-15T09:29:32.531Z,10.23
2017-10-15T09:31:59.978Z,10.97
2017-10-15T09:34:27.419Z,13.67
2017-10-15T09:36:54.865Z,14.70
2017-10-15T09:39:23.076Z,14.53
2017-10-15T09:41:50.536Z,14.00
2017-10-15T09:44:18.016Z,15.23
2017-10-15T09:46:45.454Z,13.70
2017-10-15T09:49:13.661Z,16.63
2017-10-15T09:51:41.099Z,13.13
2017-10-15T09:54:08.571Z,11.07
2017-10-15T09:56:36.004Z,9.53
2017-10-15T09:59:03.448Z,10.40
2017-10-15T10:01:30.985Z,10.50
2017-10-15T10:03:58.428Z,9.30
2017-10-15T10:06:25.881Z,10.00
2017-10-15T10:08:53.382Z,9.50
2017-10-15T10:11:20.817Z,9.93
2017-10-15T10:13:49.022Z,8.97
2017-10-15T10:16:16.465Z,9.10
2017-10-15T10:18:44.000Z,8.23
2017-10-15T10:21:11.423Z,7.47
2017-10-15T10:23:38.852Z,8.27
2017-10-15T10:26:06.289Z,8.50
2017-10-15T10:28:34.501Z,8.17
2017-10-15T10:31:01.945Z,28.90
2017-10-15T10:33:29.376Z,14.13
2017-10-15T10:35:56.847Z,9.30
2017-10-15T10:38:24.289Z,8.73
2017-10-15T10:40:51.733Z,8.77
2017-10-15T10:43:19.168Z,8.30
2017-10-15T10:45:46.612Z,8.43
2017-10-15T10:48:14.040Z,7.97
2017-10-15T10:50:41.476Z,9.07
2017-10-15T10:53:08.906Z,8.50
2017-10-15T10:55:36.460Z,8.50
2017-10-15T10:58:03.892Z,10.80
2017-10-15T11:00:31.376Z,9.23
2017-10-15T11:02:58.927Z,9.80
2017-10-15T11:05:26.368Z,9.20
2017-10-15T11:07:53.804Z,9.47
2017-10-15T11:10:21.253Z,10.33
2017-10-15T11:12:48.692Z,10.50
2017-10-15T11:15:16.129Z,8.70
2017-10-15T11:17:43.681Z,9.53
2017-10-15T11:20:11.136Z,9.47
2017-10-15T11:22:38.580Z,10.30
2017-10-15T11:25:06.009Z,9.60
2017-10-15T11:27:33.458Z,9.87
2017-10-15T11:30:00.888Z,10.23
2017-10-15T11:32:28.338Z,8.93
2017-10-15T11:34:55.777Z,9.43
2017-10-15T11:37:23.905Z,9.20
2017-10-15T11:39:51.342Z,10.47
2017-10-15T11:42:18.789Z,9.33
2017-10-15T11:44:46.212Z,9.70
2017-10-15T11:47:13.687Z,9.10
2017-10-15T11:49:41.892Z,9.30
2017-10-15T11:52:09.353Z,8.80
2017-10-15T11:54:36.847Z,9.00
2017-10-15T11:57:04.290Z,9.20
2017-10-15T11:59:32.492Z,8.80
2017-10-15T12:01:59.948Z,8.73
2017-10-15T12:04:27.395Z,8.93
2017-10-15T12:06:54.837Z,9.40
2017-10-15T12:09:22.345Z,9.27
2017-10-15T12:11:49.933Z,9.00
2017-10-15T12:14:17.389Z,10.37
2017-10-15T12:16:45.605Z,8.80
2017-10-15T12:19:13.041Z,9.93
2017-10-15T12:21:40.487Z,8.60
2017-10-15T12:24:07.975Z,13.80
2017-10-15T12:26:35.401Z,9.10
2017-10-15T12:29:02.835Z,9.87
2017-10-15T12:31:30.276Z,8.77
2017-10-15T12:33:57.737Z,7.50
2017-10-15T12:36:25.173Z,7.63
2017-10-15T12:38:52.621Z,7.07
2017-10-15T12:41:20.078Z,7.13
2017-10-15T12:43:47.554Z,6.77
2017-10-15T12:46:14.979Z,6.37
2017-10-15T12:48:43.189Z,7.23
2017-10-15T12:51:10.632Z,5.93
2017-10-15T12:53:38.112Z,5.60
2017-10-15T12:56:05.541Z,4.90
2017-10-15T12:58:33.069Z,5.30
2017-10-15T13:01:00.509Z,5.63
2017-10-15T13:03:27.945Z,5.90
2017-10-15T13:05:55.377Z,5.60
2017-10-15T13:08:22.826Z,5.30
2017-10-15T13:10:50.326Z,5.57
2017-10-15T13:13:18.513Z,6.00
2017-10-15T13:15:45.955Z,6.20
2017-10-15T13:18:13.398Z,6.10
2017-10-15T13:20:40.828Z,6.87
2017-10-15T13:23:08.252Z,9.73
2017-10-15T13:25:36.481Z,9.10
2017-10-15T13:28:03.937Z,9.83
2017-10-15T13:30:31.417Z,8.67
2017-10-15T13:32:58.852Z,10.10
2017-10-15T13:35:26.306Z,9.10
2017-10-15T13:37:53.749Z,8.80
2017-10-15T13:40:21.187Z,8.43
2017-10-15T13:42:48.675Z,6.87
2017-10-15T13:45:16.112Z,7.97
2017-10-15T13:47:43.564Z,7.27
2017-10-15T13:50:11.009Z,8.27
2017-10-15T13:52:38.460Z,6.60
2017-10-15T13:55:05.876Z,6.47
2017-10-15T13:57:33.313Z,6.50
2017-10-15T14:00:00.739Z,6.07
2017-10-15T14:02:28.196Z,6.00
2017-10-15T14:04:55.609Z,6.03
2017-10-15T14:07:23.037Z,6.07
2017-10-15T14:09:51.337Z,6.47
2017-10-15T14:12:18.764Z,5.63
2017-10-15T14:14:46.199Z,6.00
2017-10-15T14:17:13.669Z,6.93
2017-10-15T14:19:41.107Z,5.63
2017-10-15T14:22:08.564Z,4.30
2017-10-15T14:24:36.007Z,5.00
2017-10-15T14:27:03.456Z,5.60
2017-10-15T14:29:30.892Z,4.53
2017-10-15T14:31:58.340Z,3.90
2017-10-15T14:34:25.779Z,3.87
2017-10-15T14:36:53.220Z,4.30
2017-10-15T14:39:20.693Z,3.90
2017-10-15T14:41:48.881Z,3.90
2017-10-15T14:44:16.340Z,4.53
2017-10-15T14:46:43.799Z,6.10
2017-10-15T14:49:11.223Z,5.60
2017-10-15T14:51:38.658Z,4.80
2017-10-15T14:54:06.101Z,4.77
2017-10-15T14:56:33.534Z,4.87
2017-10-15T14:59:00.964Z,4.17
2017-10-15T15:01:28.395Z,4.13
2017-10-15T15:03:55.839Z,4.30
2017-10-15T15:06:23.260Z,4.27
2017-10-15T15:08:50.736Z,4.40
2017-10-15T15:11:18.181Z,4.63
2017-10-15T15:13:45.609Z,4.37
2017-10-15T15:16:13.045Z,4.17
2017-10-15T15:18:41.245Z,4.60
2017-10-15T15:21:08.672Z,4.27
2017-10-15T15:23:36.226Z,4.20
2017-10-15T15:26:03.640Z,4.13
2017-10-15T15:31:05.041Z,4.13
2017-10-15T15:33:32.576Z,4.20
2017-10-15T15:36:00.016Z,4.20
2017-10-15T15:38:27.461Z,4.20
2017-10-15T15:40:54.905Z,4.50
2017-10-15T15:43:22.344Z,4.30
2017-10-15T15:45:49.797Z,4.43
2017-10-15T15:48:18.017Z,4.83
2017-10-15T15:50:45.458Z,5.43
2017-10-15T15:53:12.901Z,4.50
2017-10-15T15:55:41.132Z,4.00
2017-10-15T15:58:08.725Z,6.20
2017-10-15T16:00:36.173Z,4.70
2017-10-15T16:03:03.611Z,4.30
2017-10-15T16:05:31.066Z,6.70
2017-10-15T16:07:58.505Z,4.30
2017-10-15T16:10:25.942Z,6.03
2017-10-15T16:12:53.376Z,5.50
2017-10-15T16:15:21.564Z,4.77
2017-10-15T16:17:49.153Z,5.20
2017-10-15T16:20:16.608Z,4.93
2017-10-15T16:22:44.040Z,5.10
2017-10-15T16:25:11.477Z,5.27
2017-10-15T16:27:39.013Z,4.60
2017-10-15T16:30:06.590Z,5.10
2017-10-15T16:32:34.026Z,5.50
2017-10-15T16:35:01.471Z,5.57
2017-10-15T16:37:28.908Z,5.83
2017-10-15T16:39:56.344Z,6.27
2017-10-15T16:42:23.793Z,5.97
2017-10-15T16:44:51.446Z,7.63
2017-10-15T16:47:18.901Z,9.60
2017-10-15T16:49:46.353Z,8.63
2017-10-15T16:52:13.860Z,9.73
2017-10-15T16:54:41.297Z,8.70
2017-10-15T16:57:08.740Z,8.10
2017-10-15T16:59:36.185Z,9.30
2017-10-15T17:02:03.641Z,7.87
2017-10-15T17:04:31.080Z,9.43
2017-10-15T17:06:58.534Z,10.20
2017-10-15T17:09:25.971Z,8.67
2017-10-15T17:11:53.425Z,9.97
2017-10-15T17:14:20.864Z,12.87
2017-10-15T17:16:48.311Z,10.30
2017-10-15T17:19:15.745Z,7.53
2017-10-15T17:21:43.224Z,9.00
2017-10-15T17:24:11.452Z,9.10
2017-10-15T17:26:38.924Z,9.30
2017-10-15T17:29:06.380Z,9.80
2017-10-15T17:31:33.831Z,10.80
2017-10-15T17:34:02.037Z,9.70
2017-10-15T17:36:29.470Z,9.27
2017-10-15T17:38:57.767Z,9.53
2017-10-15T17:41:25.961Z,9.23
2017-10-15T17:43:53.404Z,10.50
2017-10-15T17:46:20.843Z,9.67
2017-10-15T17:48:48.310Z,9.67
2017-10-15T17:51:15.740Z,9.20
2017-10-15T17:53:43.288Z,11.60
2017-10-15T17:56:10.909Z,11.70
2017-10-15T17:58:38.357Z,10.57
2017-10-15T18:01:05.796Z,9.23
2017-10-15T18:03:33.232Z,9.60
2017-10-15T18:06:00.696Z,8.80
2017-10-15T18:08:28.132Z,8.50
2017-10-15T18:10:55.579Z,8.43
2017-10-15T18:13:23.021Z,8.30
2017-10-15T18:15:50.452Z,7.83
2017-10-15T18:18:17.994Z,9.23
2017-10-15T18:20:45.519Z,9.30
2017-10-15T18:23:13.726Z,9.03
2017-10-15T18:25:41.235Z,9.17
2017-10-15T18:28:08.684Z,9.10
2017-10-15T18:30:36.144Z,9.23
2017-10-15T18:33:03.568Z,8.57
2017-10-15T18:35:31.012Z,9.63
2017-10-15T18:37:58.445Z,8.87
2017-10-15T18:40:25.888Z,9.00
2017-10-15T18:42:53.338Z,8.47
2017-10-15T18:45:20.802Z,9.50
2017-10-15T18:47:48.235Z,9.10
2017-10-15T18:50:16.443Z,9.20
2017-10-15T18:52:43.905Z,10.10
2017-10-15T18:55:11.375Z,9.60
2017-10-15T18:57:39.604Z,10.30
2017-10-15T19:00:07.055Z,8.70
2017-10-15T19:02:34.676Z,11.00
2017-10-15T19:05:02.105Z,9.80
2017-10-15T19:07:29.556Z,10.27
2017-10-15T19:09:57.003Z,9.57
2017-10-15T19:12:24.444Z,8.53
2017-10-15T19:14:51.898Z,8.37
2017-10-15T19:17:19.361Z,7.77
2017-10-15T19:19:46.816Z,8.00
2017-10-15T19:22:15.028Z,8.03
2017-10-15T19:24:42.507Z,8.07
2017-10-15T19:27:09.955Z,8.93
2017-10-15T19:29:37.393Z,6.93
2017-10-15T19:32:04.836Z,8.90
2017-10-15T19:34:32.294Z,8.20
2017-10-15T19:37:00.509Z,8.20
2017-10-15T19:39:27.970Z,8.80
2017-10-15T19:41:55.421Z,8.50
2017-10-15T19:44:23.633Z,7.33
2017-10-15T19:46:51.844Z,7.83
2017-10-15T19:49:19.276Z,8.30
2017-10-15T19:51:46.732Z,8.43
2017-10-15T19:54:14.192Z,7.63
2017-10-15T19:56:41.636Z,7.00
2017-10-15T19:59:09.095Z,6.53
2017-10-15T20:01:37.322Z,8.43
2017-10-15T20:04:04.764Z,9.27
2017-10-15T20:06:32.220Z,10.50
2017-10-15T20:08:59.689Z,9.60
2017-10-15T20:11:27.890Z,9.97
2017-10-15T20:13:55.350Z,9.93
2017-10-15T20:16:22.824Z,9.90
2017-10-15T20:18:50.266Z,10.77
2017-10-15T20:21:17.701Z,10.90
2017-10-15T20:23:45.145Z,10.60
2017-10-15T20:26:12.584Z,11.40
2017-10-15T20:28:40.053Z,10.43
2017-10-15T20:31:08.244Z,10.23
2017-10-15T20:33:35.739Z,9.20
2017-10-15T20:36:03.294Z,7.60
2017-10-15T20:38:31.496Z,7.33
2017-10-15T20:40:58.930Z,9.07
2017-10-15T20:43:26.385Z,10.57
2017-10-15T20:45:53.853Z,9.90
2017-10-15T20:48:21.271Z,9.73
2017-10-15T20:50:48.720Z,9.93
2017-10-15T20:53:16.210Z,10.47
2017-10-15T20:55:44.415Z,9.07
2017-10-15T20:58:11.884Z,9.53
2017-10-15T21:00:39.341Z,9.73
2017-10-15T21:03:07.552Z,8.73
2017-10-15T21:05:34.984Z,9.27
2017-10-15T21:08:02.435Z,8.20
2017-10-15T21:10:29.902Z,9.63
2017-10-15T21:12:57.361Z,8.20
2017-10-15T21:15:24.900Z,8.97
2017-10-15T21:17:52.364Z,8.40
2017-10-15T21:20:20.591Z,8.60
2017-10-15T21:22:48.017Z,8.57
2017-10-15T21:25:15.461Z,8.20
2017-10-15T21:27:42.922Z,10.00
2017-10-15T21:30:10.368Z,9.33
2017-10-15T21:32:37.810Z,8.80
2017-10-15T21:35:05.272Z,9.57
2017-10-15T21:37:32.715Z,9.90
2017-10-15T21:40:00.164Z,9.40
2017-10-15T21:42:27.617Z,10.03
2017-10-15T21:44:55.131Z,10.50
2017-10-15T21:47:22.706Z,10.83
2017-10-15T21:49:50.144Z,11.27
2017-10-15T21:52:17.604Z,10.50
2017-10-15T21:54:45.047Z,10.27
2017-10-15T21:57:12.497Z,11.83
2017-10-15T21:59:39.940Z,12.83
2017-10-15T22:02:08.159Z,12.10
2017-10-15T22:04:35.608Z,11.30
2017-10-15T22:07:03.040Z,12.30
2017-10-15T22:09:30.487Z,11.90
2017-10-15T22:11:57.945Z,12.03
2017-10-15T22:14:25.464Z,11.57
2017-10-15T22:16:52.904Z,11.73
2017-10-15T22:19:20.340Z,12.10
2017-10-15T22:21:53.363Z,12.90
2017-10-15T22:24:20.819Z,14.03
2017-10-15T22:26:49.053Z,12.10
2017-10-15T22:29:16.487Z,13.47
2017-10-15T22:31:43.958Z,13.13
2017-10-15T22:34:12.152Z,11.03
2017-10-15T22:36:39.603Z,12.70
2017-10-15T22:39:07.814Z,12.27
2017-10-15T22:41:35.337Z,11.90
2017-10-15T22:44:02.790Z,11.90
2017-10-15T22:46:30.260Z,11.50
2017-10-15T22:48:57.759Z,11.13
2017-10-15T22:51:25.973Z,12.67
2017-10-15T22:53:53.409Z,12.27
2017-10-15T22:56:20.871Z,12.20
2017-10-15T22:58:48.308Z,14.57
2017-10-15T23:01:15.773Z,12.00
2017-10-15T23:03:43.225Z,12.80
2017-10-15T23:06:11.445Z,13.00
2017-10-15T23:08:38.893Z,12.90
2017-10-15T23:11:06.357Z,12.00
2017-10-15T23:13:34.576Z,11.67
2017-10-15T23:16:02.024Z,10.70
2017-10-15T23:18:29.478Z,12.27
2017-10-15T23:20:56.937Z,11.37
2017-10-15T23:23:24.396Z,12.60
2017-10-15T23:25:51.832Z,10.00
2017-10-15T23:28:19.276Z,11.10
2017-10-15T23:30:47.500Z,9.63
2017-10-15T23:33:14.969Z,9.27
2017-10-15T23:35:42.403Z,10.33
2017-10-15T23:38:09.849Z,10.20
2017-10-15T23:40:37.289Z,9.50
2017-10-15T23:43:04.745Z,9.93
2017-10-15T23:45:32.189Z,10.83
2017-10-15T23:48:00.408Z,10.60
2017-10-15T23:50:27.852Z,10.00
2017-10-15T23:52:55.308Z,9.60
2017-10-15T23:55:22.749Z,9.60
2017-10-15T23:57:50.272Z,9.17
